Time;durP1;ratioP1;P1;durP2;ratioP2;P2;SDS_P1;SDS_P2;PMS_P1;PMS_P2;Temp;Humidity;BMP_temperature;BMP_pressure;BME280_temperature;BME280_humidity;BME280_pressure;Samples;Min_cycle;Max_cycle;Signal;HPM_P1;HPM_P2
2022/05/21 00:01:46;;;;;;;18.30;15.40;;;;;;;12.39;100.00;68150.50;5026585;28;20045;-76
2022/05/21 00:04:11;;;;;;;20.55;13.63;;;;;;;12.32;100.00;68141.97;5024982;28;20045;-78
2022/05/21 00:06:36;;;;;;;17.30;12.82;;;;;;;;;;5009735;28;20573;-79
2022/05/21 00:09:02;;;;;;;21.58;14.05;;;;;;;;;;5017293;28;20041;-78
2022/05/21 00:11:27;;;;;;;19.33;14.23;;;;;;;;;;5028050;28;20067;-76
2022/05/21 00:13:55;;;;;;;20.65;15.52;;;;;;;12.41;100.00;68154.88;5009564;28;20097;-77
2022/05/21 00:16:22;;;;;;;18.33;14.48;;;;;;;12.36;100.00;68146.53;5015032;28;20053;-78
2022/05/21 00:18:48;;;;;;;20.35;15.35;;;;;;;12.35;100.00;68145.97;5008679;28;20453;-77
2022/05/21 00:21:13;;;;;;;21.58;14.82;;;;;;;;;;5026888;28;20116;-79
2022/05/21 00:23:39;;;;;;;22.35;14.05;;;;;;;12.34;100.00;68144.81;5024006;28;20049;-78
2022/05/21 00:26:10;;;;;;;21.42;15.25;;;;;;;12.35;100.00;68137.38;5012229;28;20439;-77
2022/05/21 00:28:38;;;;;;;18.40;13.10;;;;;;;12.29;100.00;68139.16;5026651;28;20044;-78
2022/05/21 00:31:05;;;;;;;19.80;13.48;;;;;;;12.23;100.00;68132.31;5027781;28;20044;-77
2022/05/21 00:33:30;;;;;;;23.80;17.02;;;;;;;12.26;100.00;68135.16;5025547;28;20077;-78
2022/05/21 00:35:57;;;;;;;19.42;13.80;;;;;;;12.16;100.00;68124.38;5028469;28;20424;-79
2022/05/21 00:38:22;;;;;;;21.40;14.15;;;;;;;;;;5022140;28;20049;-79
2022/05/21 00:40:48;;;;;;;23.48;15.90;;;;;;;;;;5029451;28;20414;-77
2022/05/21 00:43:32;;;;;;;23.25;13.85;;;;;;;;;;5030120;28;20037;-77
2022/05/21 00:45:57;;;;;;;23.77;16.75;;;;;;;11.95;100.00;68101.06;5029662;28;20046;-78
2022/05/21 00:48:23;;;;;;;24.23;15.57;;;;;;;11.97;100.00;68103.34;5020642;28;20058;-78
2022/05/21 00:50:48;;;;;;;23.48;17.10;;;;;;;11.94;100.00;68099.94;5010428;28;20044;-78
2022/05/21 00:53:14;;;;;;;23.85;17.15;;;;;;;11.91;100.00;68097.09;5025800;28;20041;-79
2022/05/21 00:55:40;;;;;;;24.08;16.15;;;;;;;11.88;100.00;68093.13;5030285;28;20529;-78
2022/05/21 01:00:56;;;;;;;26.88;16.17;;;;;;;11.79;100.00;68083.44;5029694;28;20660;-78
2022/05/21 01:03:23;;;;;;;21.70;17.30;;;;;;;11.73;100.00;68071.84;5031770;28;20053;-79
2022/05/21 01:05:49;;;;;;;22.67;16.40;;;;;;;;;;5030899;28;20048;-79
2022/05/21 01:08:15;;;;;;;24.30;17.77;;;;;;;;;;5029713;28;20053;-78
2022/05/21 01:10:47;;;;;;;26.75;19.33;;;;;;;;;;5027639;28;20038;-80
2022/05/21 01:13:17;;;;;;;25.05;17.15;;;;;;;11.61;100.00;68063.56;5027063;28;20052;-77
2022/05/21 01:15:46;;;;;;;23.90;15.88;;;;;;;11.57;100.00;68061.13;5026980;28;20033;-80
2022/05/21 01:18:12;;;;;;;26.45;18.75;;;;;;;11.61;100.00;68063.00;5022849;28;20045;-77
2022/05/21 01:20:44;;;;;;;24.98;18.52;;;;;;;11.52;100.00;68053.91;5029998;28;20034;-77
2022/05/21 01:23:09;;;;;;;25.58;20.00;;;;;;;11.58;100.00;68059.59;5029206;28;20120;-77
2022/05/21 01:25:38;;;;;;;25.80;19.83;;;;;;;11.61;100.00;68063.00;5031238;28;20515;-77
2022/05/21 01:28:04;;;;;;;26.48;19.13;;;;;;;11.61;100.00;68063.56;5031235;28;20045;-77
2022/05/21 01:30:43;;;;;;;26.00;19.42;;;;;;;;;;5031493;28;20168;-78
2022/05/21 01:33:12;;;;;;;28.15;18.88;;;;;;;11.60;100.00;68061.88;5022176;28;20558;-76
2022/05/21 01:35:39;;;;;;;27.15;18.42;;;;;;;11.53;100.00;68054.47;5030211;28;20132;-77
2022/05/21 01:38:05;;;;;;;27.67;18.33;;;;;;;11.56;100.00;68057.88;5027550;28;20052;-79
2022/05/21 01:40:31;;;;;;;30.08;21.92;;;;;;;11.67;100.00;68073.03;5022110;28;20042;-78
2022/05/21 01:45:40;;;;;;;28.27;20.75;;;;;;;;;;5030686;28;20044;-77
2022/05/21 01:48:06;;;;;;;26.23;18.95;;;;;;;11.57;100.00;68058.47;5030455;28;20049;-78
2022/05/21 01:50:32;;;;;;;28.85;20.25;;;;;;;11.59;100.00;68061.28;5031404;28;20119;-79
2022/05/21 01:52:57;;;;;;;29.30;19.42;;;;;;;11.63;100.00;68065.84;5012067;28;20068;-77
2022/05/21 01:55:23;;;;;;;24.98;19.52;;;;;;;11.63;100.00;68070.59;5029933;28;20053;-78
2022/05/21 01:57:48;;;;;;;23.20;17.45;;;;;;;;;;5023240;28;20069;-78
2022/05/21 02:00:15;;;;;;;25.10;16.90;;;;;;;11.66;100.00;68071.91;5032426;28;20049;-77
2022/05/21 02:02:41;;;;;;;22.65;16.27;;;;;;;11.68;100.00;68071.53;5022307;28;20077;-78
2022/05/21 02:05:07;;;;;;;22.45;15.23;;;;;;;11.67;100.00;68064.47;5048065;23;20086;-83
2022/05/21 02:07:32;;;;;;;23.23;15.88;;;;;;;11.69;100.00;68077.41;5014967;28;20053;-83
2022/05/21 02:09:58;;;;;;;24.60;17.17;;;;;;;11.70;100.00;68073.22;5009620;28;20038;-79
2022/05/21 02:12:24;;;;;;;25.48;16.10;;;;;;;11.75;100.00;68079.47;5009213;28;20042;-79
2022/05/21 02:14:50;;;;;;;22.35;16.45;;;;;;;11.76;100.00;68080.03;5010299;28;20391;-80
2022/05/21 02:17:16;;;;;;;27.20;16.85;;;;;;;11.77;100.00;68080.59;5010238;28;20048;-78
2022/05/21 02:19:42;;;;;;;24.65;16.58;;;;;;;11.77;100.00;68075.84;5010474;28;20065;-78
2022/05/21 02:22:08;;;;;;;23.80;15.57;;;;;;;11.80;100.00;68084.59;5009317;28;20148;-80
2022/05/21 02:24:33;;;;;;;22.77;15.13;;;;;;;;;;5010685;28;20076;-80
2022/05/21 02:26:59;;;;;;;22.53;16.63;;;;;;;11.79;100.00;68082.88;5009572;28;20093;-80
2022/05/21 02:29:25;;;;;;;22.90;15.85;;;;;;;11.79;100.00;68082.88;5008891;28;20323;-80
2022/05/21 02:31:51;;;;;;;26.38;17.70;;;;;;;11.81;100.00;68085.72;5008564;28;20092;-80
2022/05/21 02:34:16;;;;;;;24.80;18.23;;;;;;;11.86;100.00;68090.84;5010446;28;20038;-80
2022/05/21 02:39:25;;;;;;;24.05;17.25;;;;;;;11.82;100.00;68089.50;5011416;28;20052;-80
2022/05/21 02:41:52;;;;;;;23.08;17.13;;;;;;;11.82;100.00;68081.50;5009467;28;20185;-82
2022/05/21 02:44:17;;;;;;;25.38;18.00;;;;;;;;;;5014583;28;20046;-81
2022/05/21 02:46:42;;;;;;;24.85;17.17;;;;;;;11.86;100.00;68093.53;5014308;28;20052;-80
2022/05/21 02:49:07;;;;;;;26.70;18.58;;;;;;;;;;5013040;28;20050;-80
2022/05/21 02:51:33;;;;;;;25.90;17.33;;;;;;;;;;5014286;28;20037;-81
2022/05/21 02:53:58;;;;;;;25.13;18.80;;;;;;;11.90;100.00;68095.94;5013590;28;20365;-80
2022/05/21 02:56:23;;;;;;;27.90;18.80;;;;;;;;;;5014239;28;20360;-79
2022/05/21 02:58:49;;;;;;;26.60;18.20;;;;;;;11.89;100.00;68094.25;5014296;28;20497;-80
2022/05/21 03:01:14;;;;;;;27.48;17.58;;;;;;;;;;5014543;28;20285;-81
2022/05/21 03:03:39;;;;;;;24.52;18.48;;;;;;;11.92;100.00;68097.66;5012371;28;20106;-81
2022/05/21 03:06:05;;;;;;;25.85;18.15;;;;;;;11.94;100.00;68100.50;5015100;28;20046;-78
2022/05/21 03:11:14;;;;;;;29.90;17.88;;;;;;;11.93;100.00;68098.78;5037545;28;20630;-80
2022/05/21 03:13:39;;;;;;;24.67;19.27;;;;;;;12.02;100.00;68109.03;5011810;28;20050;-81
2022/05/21 03:16:06;;;;;;;25.98;16.70;;;;;;;11.99;100.00;68099.72;5011402;28;20568;-81
2022/05/21 03:18:31;;;;;;;26.35;17.10;;;;;;;11.96;100.00;68102.19;5010862;28;20050;-81
2022/05/21 03:20:56;;;;;;;29.23;19.58;;;;;;;;;;5012838;28;20026;-79
2022/05/21 03:23:21;;;;;;;24.77;18.00;;;;;;;;;;5009570;28;20131;-79
2022/05/21 03:25:47;;;;;;;25.77;19.37;;;;;;;12.04;100.00;68110.72;5011500;28;20386;-79
2022/05/21 03:28:17;;;;;;;24.42;16.48;;;;;;;12.00;100.00;68106.19;5009763;28;20277;-81
2022/05/21 03:30:43;;;;;;;26.65;17.95;;;;;;;12.07;100.00;68114.13;5009209;28;20034;-79
2022/05/21 03:33:09;;;;;;;26.98;18.35;;;;;;;12.10;100.00;68112.22;5011031;28;20049;-80
2022/05/21 03:35:34;;;;;;;23.92;17.00;;;;;;;;;;5013595;28;20041;-80
2022/05/21 03:38:00;;;;;;;25.38;18.08;;;;;;;12.10;100.00;68117.53;5020160;28;20056;-80
2022/05/21 03:40:27;;;;;;;25.30;17.23;;;;;;;;;;5010459;28;20038;-80
2022/05/21 03:42:53;;;;;;;23.85;17.00;;;;;;;12.13;100.00;68121.53;5009678;28;20046;-79
2022/05/21 03:45:18;;;;;;;31.75;18.05;;;;;;;12.16;100.00;68119.03;5012245;28;20049;-80
2022/05/21 03:47:44;;;;;;;28.48;19.38;;;;;;;12.16;100.00;68130.25;5009564;28;20177;-81
2022/05/21 03:50:12;;;;;;;30.08;17.75;;;;;;;12.18;100.00;68126.63;5012507;28;20034;-80
2022/05/21 03:52:37;;;;;;;26.00;17.25;;;;;;;12.19;100.00;68127.78;5011060;28;20042;-81
2022/05/21 03:55:02;;;;;;;28.45;19.23;;;;;;;;;;5013225;28;20034;-79
2022/05/21 03:57:28;;;;;;;28.30;17.92;;;;;;;12.25;100.00;68134.03;5012477;28;20044;-80
2022/05/21 03:59:54;;;;;;;30.52;19.35;;;;;;;12.29;100.00;68141.25;5013919;28;20125;-80
2022/05/21 04:02:19;;;;;;;32.70;17.85;;;;;;;;;;5004392;28;20568;-80
2022/05/21 04:04:44;;;;;;;28.77;17.40;;;;;;;12.29;100.00;68138.56;5007887;28;20053;-81
2022/05/21 04:07:10;;;;;;;29.00;18.40;;;;;;;12.31;100.00;68140.84;5019635;28;20280;-81
2022/05/21 04:09:35;;;;;;;27.70;18.20;;;;;;;;;;5004370;28;20101;-81
2022/05/21 04:12:00;;;;;;;26.85;17.75;;;;;;;;;;5006668;28;20061;-81
2022/05/21 04:14:27;;;;;;;25.10;17.65;;;;;;;;;;5009597;28;20046;-80
2022/05/21 04:16:58;;;;;;;27.75;17.40;;;;;;;12.35;100.00;68145.41;5004740;28;20038;-81
2022/05/21 04:19:25;;;;;;;29.63;16.70;;;;;;;12.32;100.00;68137.22;5008094;28;20566;-81
2022/05/21 04:21:51;;;;;;;33.85;18.08;;;;;;;12.35;100.00;68148.06;5006985;28;20057;-81
2022/05/21 04:24:17;;;;;;;26.98;18.95;;;;;;;12.40;100.00;68151.09;5006187;28;20034;-80
2022/05/21 04:26:43;;;;;;;31.13;18.27;;;;;;;12.42;100.00;68153.34;5007452;28;20030;-82
2022/05/21 04:29:10;;;;;;;29.38;18.38;;;;;;;;;;5009498;28;20052;-80
2022/05/21 04:31:35;;;;;;;29.92;16.17;;;;;;;;;;5010676;28;20137;-82
2022/05/21 04:34:00;;;;;;;27.40;16.53;;;;;;;;;;5024203;28;20451;-80
2022/05/21 04:36:25;;;;;;;21.30;15.00;;;;;;;12.41;100.00;68152.78;5014158;28;20357;-80
2022/05/21 04:38:53;;;;;;;22.70;15.95;;;;;;;12.39;100.00;68150.50;5020176;28;20880;-81
2022/05/21 04:41:19;;;;;;;26.15;17.10;;;;;;;12.38;100.00;68149.38;5019248;28;20038;-81
2022/05/21 04:43:46;;;;;;;28.67;17.85;;;;;;;12.44;100.00;68155.06;5012959;28;20052;-83
2022/05/21 04:46:11;;;;;;;28.80;16.08;;;;;;;12.42;100.00;68148.56;5015612;28;20506;-82
2022/05/21 04:48:37;;;;;;;24.35;16.45;;;;;;;12.42;100.00;68148.56;5012680;28;20050;-81
2022/05/21 04:51:03;;;;;;;30.80;18.08;;;;;;;;;;5010036;28;20058;-82
2022/05/21 04:53:29;;;;;;;24.25;17.77;;;;;;;12.52;100.00;68164.72;5009672;28;20518;-82
2022/05/21 04:55:55;;;;;;;27.23;17.67;;;;;;;;;;5009377;28;20065;-81
2022/05/21 04:58:20;;;;;;;23.52;14.75;;;;;;;12.55;100.00;68162.78;5009989;28;20129;-81
2022/05/21 05:00:46;;;;;;;27.95;16.50;;;;;;;;;;5009828;28;20045;-82
2022/05/21 05:03:13;;;;;;;30.55;16.92;;;;;;;12.56;100.00;68171.91;5009033;28;20517;-81
2022/05/21 05:05:39;;;;;;;28.35;17.15;;;;;;;;;;5010512;28;20049;-81
2022/05/21 05:08:05;;;;;;;27.35;17.05;;;;;;;12.57;100.00;68165.06;5027154;28;20046;-82
2022/05/21 05:10:31;;;;;;;24.25;15.48;;;;;;;12.54;100.00;68166.41;5009440;28;20042;-81
2022/05/21 05:12:57;;;;;;;25.60;16.13;;;;;;;;;;5008948;28;20042;-81
2022/05/21 05:15:22;;;;;;;24.67;15.13;;;;;;;12.57;100.00;68169.81;5008954;28;20053;-82
2022/05/21 05:17:47;;;;;;;23.27;16.50;;;;;;;;;;5007391;28;20288;-81
2022/05/21 05:20:13;;;;;;;28.88;17.10;;;;;;;12.63;100.00;68179.31;5006819;28;20388;-81
2022/05/21 05:22:38;;;;;;;27.05;16.00;;;;;;;;;;5009503;28;20038;-81
2022/05/21 05:25:04;;;;;;;25.87;14.80;;;;;;;12.56;100.00;68169.25;5017144;28;20053;-81
2022/05/21 05:27:30;;;;;;;26.42;16.42;;;;;;;12.55;100.00;68167.56;5009435;28;20281;-82
2022/05/21 05:29:55;;;;;;;27.85;15.60;;;;;;;12.52;100.00;68164.72;5006090;28;20153;-83
2022/05/21 05:32:21;;;;;;;27.73;15.80;;;;;;;12.50;100.00;68162.44;5006327;28;20057;-82
2022/05/21 05:34:46;;;;;;;27.08;15.68;;;;;;;12.53;100.00;68159.94;5009488;28;20053;-81
2022/05/21 05:37:12;;;;;;;25.25;16.90;;;;;;;12.53;100.00;68165.84;5020569;28;20041;-81
2022/05/21 05:39:37;;;;;;;24.23;14.63;;;;;;;;;;5016275;28;20057;-81
2022/05/21 05:42:04;;;;;;;24.45;15.65;;;;;;;;;;5008892;28;20042;-84
2022/05/21 05:44:31;;;;;;;25.23;15.18;;;;;;;12.59;100.00;68172.09;5011474;28;20110;-82
2022/05/21 05:46:57;;;;;;;23.15;15.02;;;;;;;12.57;100.00;68170.41;5009577;28;20068;-81
2022/05/21 05:49:22;;;;;;;25.92;16.63;;;;;;;12.58;100.00;68171.53;5006660;28;20573;-80
2022/05/21 05:51:47;;;;;;;19.73;14.07;;;;;;;12.60;100.00;68167.88;5006175;28;20065;-80
2022/05/21 05:54:12;;;;;;;24.20;13.73;;;;;;;;;;5005610;28;20180;-81
2022/05/21 05:56:42;;;;;;;24.50;14.13;;;;;;;12.65;100.00;68178.91;5008318;28;20053;-82
2022/05/21 06:02:57;;;;;;;23.75;15.20;;;;;;;;;;5008104;28;20076;-81
2022/05/21 06:04:37;;;;;;;24.48;15.55;;;;;;;12.76;100.00;68191.41;5009175;28;20417;-81
2022/05/21 06:07:02;;;;;;;26.67;15.15;;;;;;;;;;5011858;28;20093;-81
2022/05/21 06:09:28;;;;;;;25.95;15.18;;;;;;;;;;5012378;28;20133;-81
2022/05/21 06:11:53;;;;;;;24.67;16.33;;;;;;;12.84;100.00;68195.19;5011096;28;20041;-81
2022/05/21 06:14:19;;;;;;;25.45;14.90;;;;;;;12.82;100.00;68197.69;5012032;28;20071;-81
2022/05/21 06:16:44;;;;;;;26.58;13.80;;;;;;;12.80;100.00;68195.97;5010926;28;20119;-80
2022/05/21 06:19:10;;;;;;;26.08;14.43;;;;;;;12.82;100.00;68198.25;5025810;28;20180;-80
2022/05/21 06:21:35;;;;;;;23.08;14.65;;;;;;;12.88;100.00;68207.16;5009939;28;20457;-81
2022/05/21 06:24:01;;;;;;;23.88;13.88;;;;;;;12.96;100.00;68207.69;5010606;28;20089;-81
2022/05/21 06:26:26;;;;;;;23.98;14.40;;;;;;;12.91;100.00;68207.34;5006925;28;20052;-80
2022/05/21 06:28:51;;;;;;;25.98;16.13;;;;;;;;;;5008884;28;20046;-81
2022/05/21 06:31:17;;;;;;;20.33;13.98;;;;;;;;;;5007710;28;20056;-81
2022/05/21 06:33:42;;;;;;;22.50;14.23;;;;;;;13.07;100.00;68226.09;5018513;28;20037;-81
2022/05/21 06:36:14;;;;;;;23.20;14.27;;;;;;;13.10;100.00;68229.50;5010225;28;20042;-81
2022/05/21 06:38:40;;;;;;;24.42;14.27;;;;;;;;;;5010108;28;20096;-81
2022/05/21 06:41:06;;;;;;;24.00;14.23;;;;;;;;;;5009340;28;24780;-82
2022/05/21 06:43:31;;;;;;;19.25;11.95;;;;;;;;;;5009945;28;20041;-81
2022/05/21 06:45:58;;;;;;;30.40;14.57;;;;;;;13.30;100.00;68251.72;5011258;28;20096;-81
2022/05/21 06:48:23;;;;;;;25.23;14.38;;;;;;;13.31;100.00;68247.50;5012435;28;20071;-83
2022/05/21 06:50:49;;;;;;;24.67;12.50;;;;;;;;;;5012677;28;20550;-81
2022/05/21 06:53:14;;;;;;;25.50;12.33;;;;;;;13.35;100.00;68256.25;5007800;28;20507;-81
2022/05/21 06:55:40;;;;;;;22.08;12.85;;;;;;;13.36;100.00;68252.63;5011414;28;21055;-80
2022/05/21 06:58:05;;;;;;;26.90;13.55;;;;;;;;;;5010297;28;20038;-81
2022/05/21 07:00:31;;;;;;;24.77;12.95;;;;;;;;;;5012191;28;20042;-82
2022/05/21 07:02:56;;;;;;;24.27;14.25;;;;;;;;;;5010343;28;20388;-81
2022/05/21 07:08:16;;;;;;;23.05;12.40;;;;;;;;;;5012701;28;20137;-81
2022/05/21 07:10:41;;;;;;;27.00;13.38;;;;;;;13.59;99.97;68277.66;5012961;28;20053;-82
2022/05/21 07:13:07;;;;;;;24.88;12.85;;;;;;;;;;5010598;28;20046;-81
2022/05/21 07:15:32;;;;;;;23.47;11.93;;;;;;;;;;5003393;28;20057;-82
2022/05/21 07:17:59;;;;;;;21.60;12.63;;;;;;;;;;5011420;28;20292;-83
2022/05/21 07:20:25;;;;;;;21.02;12.10;;;;;;;13.96;97.76;68329.88;5014299;28;20042;-83
2022/05/21 07:22:50;;;;;;;20.63;10.90;;;;;;;13.99;96.96;68327.94;5002619;28;20076;-80
2022/05/21 07:25:20;;;;;;;18.48;9.68;;;;;;;13.96;96.54;68324.53;5009037;28;20165;-85
2022/05/21 07:27:46;;;;;;;17.30;9.48;;;;;;;;;;5003326;28;20709;-83
2022/05/21 07:30:13;;;;;;;15.88;8.57;;;;;;;14.05;95.54;68334.75;5009911;28;20053;-83
2022/05/21 07:32:38;;;;;;;17.63;9.57;;;;;;;14.11;95.22;68341.59;5010092;28;20038;-84
2022/05/21 07:35:09;;;;;;;22.50;8.50;;;;;;;14.11;94.19;68341.03;5007247;28;20052;-82
2022/05/21 07:37:35;;;;;;;15.13;8.27;;;;;;;;;;5008984;28;20037;-81
2022/05/21 07:40:01;;;;;;;17.88;9.63;;;;;;;14.14;92.79;68344.44;5009304;28;20053;-80
2022/05/21 07:42:27;;;;;;;16.38;7.78;;;;;;;14.13;92.65;68338.53;5008674;28;20046;-80
2022/05/21 07:44:52;;;;;;;17.25;7.80;;;;;;;14.26;93.55;68352.16;5012711;28;20073;-80
2022/05/21 07:47:22;;;;;;;17.95;7.25;;;;;;;14.31;91.96;68363.78;5013018;28;20048;-81
2022/05/21 07:49:48;;;;;;;20.05;8.15;;;;;;;14.40;92.37;68373.47;5005261;28;20077;-80
2022/05/21 07:52:14;;;;;;;19.23;7.03;;;;;;;;;;5014071;28;20046;-81
2022/05/21 07:54:39;;;;;;;14.43;7.30;;;;;;;14.64;89.99;68395.47;5013823;28;20132;-80
2022/05/21 07:57:04;;;;;;;14.68;6.60;;;;;;;14.63;89.17;68399.66;5014270;28;20284;-80
2022/05/21 07:59:30;;;;;;;15.80;6.18;;;;;;;14.75;89.96;68412.19;5013391;28;20066;-81
2022/05/21 08:01:56;;;;;;;15.98;6.88;;;;;;;;;;5012373;28;20552;-80
2022/05/21 08:04:21;;;;;;;15.27;6.53;;;;;;;14.80;89.39;68418.44;5014550;28;20046;-80
2022/05/21 08:06:46;;;;;;;13.70;6.55;;;;;;;;;;5027261;23;20383;-88
2022/05/21 08:09:12;;;;;;;15.05;6.80;;;;;;;14.71;89.29;68402.84;5026247;28;20045;-88
2022/05/21 08:11:37;;;;;;;16.00;6.45;;;;;;;;;;5027047;28;20565;-87
2022/05/21 08:14:03;;;;;;;16.10;6.72;;;;;;;14.82;88.75;68415.38;5028956;28;20060;-87
2022/05/21 08:16:29;;;;;;;15.02;5.72;;;;;;;14.91;88.23;68425.06;5032315;28;20045;-88
2022/05/21 08:18:54;;;;;;;15.50;6.00;;;;;;;14.82;87.31;68423.41;5031781;28;20037;-87
2022/05/21 08:21:20;;;;;;;15.60;5.43;;;;;;;14.78;88.27;68415.59;5030109;28;20037;-88
2022/05/21 08:26:59;;;;;;;11.63;6.35;;;;;;;14.70;89.54;68406.50;4982345;28;20038;-88
2022/05/21 08:29:35;;;;;;;16.10;6.10;;;;;;;14.86;89.75;68419.91;4986403;28;20152;-87
2022/05/21 08:32:02;;;;;;;10.75;5.45;;;;;;;15.03;87.39;68438.72;5009953;28;20037;-87
2022/05/21 08:34:28;;;;;;;10.48;5.05;;;;;;;14.90;86.93;68423.91;5043686;28;20497;-85
2022/05/21 08:36:54;;;;;;;9.52;5.10;;;;;;;14.83;86.77;68416.50;5037901;28;20567;-87
2022/05/21 08:39:21;;;;;;;12.80;6.35;;;;;;;14.84;87.80;68417.06;5027794;28;20041;-87
2022/05/21 08:41:57;;;;;;;11.88;5.50;;;;;;;14.84;88.18;68417.06;5022372;28;20540;-88
2022/05/21 08:44:37;;;;;;;20.60;6.88;;;;;;;;;;5025908;28;20048;-87
2022/05/21 08:47:35;;;;;;;11.85;5.38;;;;;;;14.81;87.63;68419.59;5026979;28;20040;-86
2022/05/21 08:50:12;;;;;;;14.38;6.00;;;;;;;;;;5005915;28;20030;-87
2022/05/21 08:53:01;;;;;;;15.13;6.13;;;;;;;14.83;88.18;68423.97;5017570;28;20037;-87
2022/05/21 08:55:31;;;;;;;15.23;4.53;;;;;;;14.92;85.82;68426.19;5024762;28;20042;-87
2022/05/21 08:58:10;;;;;;;9.85;4.05;;;;;;;;;;5031249;28;20043;-87
2022/05/21 09:00:42;;;;;;;11.57;3.22;;;;;;;;;;5028571;28;20064;-87
2022/05/21 09:03:10;;;;;;;13.63;4.13;;;;;;;15.12;83.19;68454.31;5027143;28;20049;-86
2022/05/21 09:05:47;;;;;;;8.63;4.30;;;;;;;15.15;84.48;68457.16;5040821;28;20084;-89
2022/05/21 09:08:22;;;;;;;12.70;4.07;;;;;;;15.38;82.84;68474.75;5046119;28;20053;-90
2022/05/21 09:10:47;;;;;;;11.38;3.80;;;;;;;;;;5056160;28;20090;-88
2022/05/21 09:13:12;;;;;;;11.03;3.03;;;;;;;15.87;80.44;68539.63;5056837;28;20033;-89
2022/05/21 09:18:24;;;;;;;6.35;3.05;;;;;;;;;;5072805;28;20094;-91
2022/05/21 09:20:58;;;;;;;9.23;3.20;;;;;;;;;;5051393;28;20054;-89
2022/05/21 09:23:24;;;;;;;10.93;3.08;;;;;;;15.78;76.87;68522.47;5037734;28;20053;-87
2022/05/21 09:26:08;;;;;;;10.93;2.97;;;;;;;15.95;77.48;68541.25;5024173;28;20030;-86
2022/05/21 09:28:37;;;;;;;10.38;3.30;;;;;;;16.15;78.56;68563.50;5023746;28;20121;-88
2022/05/21 09:31:05;;;;;;;8.73;2.67;;;;;;;16.39;76.27;68595.66;5037979;28;20037;-87
2022/05/21 09:33:35;;;;;;;11.57;3.40;;;;;;;16.26;75.50;68580.84;5026847;28;20100;-87
2022/05/21 09:36:01;;;;;;;11.57;2.90;;;;;;;16.20;76.08;68568.63;5024666;28;20040;-88
2022/05/21 09:38:31;;;;;;;6.40;2.35;;;;;;;;;;5022409;28;20045;-87
2022/05/21 09:41:05;;;;;;;10.30;2.63;;;;;;;16.18;74.65;68566.34;5028939;28;20053;-87
2022/05/21 09:46:24;;;;;;;7.57;2.40;;;;;;;;;;5021893;28;20150;-88
2022/05/21 09:48:50;;;;;;;7.72;2.20;;;;;;;;;;5026627;28;20095;-86
2022/05/21 09:51:43;;;;;;;10.40;2.60;;;;;;;16.15;74.44;68568.28;5029978;28;20037;-90
2022/05/21 09:54:40;;;;;;;6.05;2.33;;;;;;;;;;5019648;28;20129;-88
2022/05/21 09:57:22;;;;;;;10.25;2.63;;;;;;;15.95;75.23;68541.25;4953345;28;20146;-87
2022/05/21 10:00:27;;;;;;;8.77;2.83;;;;;;;15.87;75.98;68536.94;5002519;28;20034;-87
2022/05/21 10:02:58;;;;;;;9.57;3.05;;;;;;;15.83;76.47;68527.03;4930463;29;20044;-89
2022/05/21 10:05:23;;;;;;;10.73;2.70;;;;;;;;;;4931129;29;20326;-87
2022/05/21 10:10:59;;;;;;;8.90;2.90;;;;;;;;;;5005177;28;20081;-86
2022/05/21 10:13:33;;;;;;;11.05;3.20;;;;;;;15.81;77.01;68525.31;4957275;28;20138;-88
2022/05/21 10:16:01;;;;;;;7.25;2.80;;;;;;;;;;4989233;28;20499;-89
2022/05/21 10:18:31;;;;;;;7.20;2.50;;;;;;;;;;4988466;28;20054;-85
2022/05/21 10:21:33;;;;;;;;;;;;;;;;;;;;;
2022/05/21 10:24:09;;;;;;;7.25;1.70;;;;;;;;;;4970856;28;20072;-87
2022/05/21 10:26:55;;;;;;;10.70;2.92;;;;;;;15.90;73.29;68540.94;4984963;28;20085;-85
2022/05/21 10:29:54;;;;;;;10.07;2.25;;;;;;;15.91;73.78;68542.09;5015040;28;20060;-87
2022/05/21 10:35:24;;;;;;;6.65;1.98;;;;;;;;;;5037496;28;20264;-88
2022/05/21 10:38:01;;;;;;;8.13;2.30;;;;;;;;;;5031724;28;20083;-85
2022/05/21 10:40:35;;;;;;;12.38;2.72;;;;;;;16.14;74.37;68559.69;5031623;28;20037;-86
2022/05/21 10:43:30;;;;;;;7.65;2.60;;;;;;;16.32;73.17;68581.75;5043997;28;20053;-89
2022/05/21 10:46:45;;;;;;;8.88;2.67;;;;;;;16.58;72.04;68616.19;5032735;28;20038;-85
2022/05/21 10:49:26;;;;;;;7.78;2.30;;;;;;;;;;4988320;28;20041;-86
2022/05/21 10:52:30;;;;;;;9.82;2.28;;;;;;;16.41;70.04;68592.56;5034191;28;20631;-86
2022/05/21 10:54:55;;;;;;;9.45;2.13;;;;;;;;;;4976040;28;20039;-86
2022/05/21 10:57:29;;;;;;;8.57;2.10;;;;;;;16.63;71.85;68616.50;5016861;28;20064;-86
2022/05/21 11:00:15;;;;;;;7.10;2.10;;;;;;;16.96;71.01;68653.03;5019392;28;20359;-91
2022/05/21 11:03:08;;;;;;;6.90;2.28;;;;;;;17.14;69.79;68673.53;5030150;28;20046;-87
2022/05/21 11:06:13;;;;;;;7.15;1.90;;;;;;;17.12;69.53;68671.28;5010451;28;20136;-88
2022/05/21 11:12:18;;;;;;;7.07;2.70;;;;;;;17.36;70.35;68693.25;4973715;28;20041;-87
2022/05/21 11:15:02;;;;;;;8.63;2.55;;;;;;;17.39;67.05;68695.56;5013116;28;20033;-89
2022/05/21 11:18:03;;;;;;;8.35;1.98;;;;;;;17.62;66.86;68727.16;5012016;28;20532;-89
2022/05/21 11:20:31;;;;;;;6.82;2.55;;;;;;;;;;4980713;28;20219;-87
2022/05/21 11:23:18;;;;;;;6.17;2.37;;;;;;;17.48;67.53;68709.06;5004188;28;20041;-87
2022/05/21 11:26:01;;;;;;;6.80;2.30;;;;;;;17.66;64.64;68725.78;5016603;28;20050;-87
2022/05/21 11:28:53;;;;;;;8.60;2.33;;;;;;;17.61;66.34;68726.03;5018571;28;20045;-86
2022/05/21 11:37:42;;;;;;;9.40;3.08;;;;;;;17.77;67.19;68743.72;4968935;28;20426;-86
2022/05/21 11:40:51;;;;;;;10.20;2.95;;;;;;;17.61;68.53;68726.03;4977187;28;20046;-87
2022/05/21 11:43:21;;;;;;;;;;;;;;;17.76;65.68;68742.56;4936881;28;20050;-87
2022/05/21 11:46:10;;;;;;;11.82;3.10;;;;;;;17.63;66.97;68728.31;4969532;28;20008;-88
2022/05/21 11:48:35;;;;;;;;;;;;;;;17.64;68.16;68729.47;4979733;28;20069;-84
2022/05/21 11:51:20;;;;;;;11.43;3.50;;;;;;;17.52;67.86;68715.75;4993225;28;19913;-88
2022/05/21 11:53:48;;;;;;;7.13;2.83;;;;;;;17.53;67.33;68722.28;4995419;28;20553;-87
2022/05/21 11:56:14;;;;;;;7.47;2.65;;;;;;;17.71;67.86;68737.44;4951514;28;20054;-86
2022/05/21 11:59:06;;;;;;;8.35;2.58;;;;;;;;;;4974358;28;20057;-87
2022/05/21 12:01:40;;;;;;;9.32;2.92;;;;;;;;;;4959416;28;20707;-87
2022/05/21 12:04:47;;;;;;;7.20;2.15;;;;;;;17.58;63.44;68719.91;4933767;28;20044;-86
2022/05/21 12:07:44;;;;;;;7.13;2.30;;;;;;;17.58;61.62;68722.63;4924256;29;20055;-87
2022/05/21 12:10:38;;;;;;;7.50;2.60;;;;;;;17.58;62.32;68728.56;4922661;28;20059;-87
2022/05/21 12:13:21;;;;;;;7.03;2.35;;;;;;;17.44;61.97;68706.63;4896623;28;20126;-89
2022/05/21 12:15:59;;;;;;;8.30;3.25;;;;;;;17.75;65.01;68747.41;4944057;28;20657;-89
2022/05/21 12:18:37;;;;;;;7.73;2.63;;;;;;;18.07;63.35;68774.13;4902232;29;20067;-88
2022/05/21 12:21:28;;;;;;;8.15;2.90;;;;;;;18.22;60.24;68793.97;4878806;29;20615;-88
2022/05/21 12:24:08;;;;;;;6.78;2.80;;;;;;;18.22;60.03;68793.97;4895937;29;20103;-87
2022/05/21 12:27:00;;;;;;;7.88;2.30;;;;;;;18.19;60.36;68785.16;4871225;29;20041;-89
2022/05/21 12:29:34;;;;;;;8.43;2.30;;;;;;;18.40;58.88;68813.94;4851698;29;20140;-87
2022/05/21 12:32:03;;;;;;;13.18;3.17;;;;;;;;;;4840474;29;20041;-88
2022/05/21 12:34:37;;;;;;;9.30;2.60;;;;;;;;;;4861150;29;20048;-86
2022/05/21 12:37:18;;;;;;;9.55;3.03;;;;;;;18.88;61.35;68868.22;4908864;29;20043;-86
2022/05/21 12:40:01;;;;;;;7.40;2.92;;;;;;;18.99;60.53;68880.19;4877353;29;20044;-88
2022/05/21 12:42:35;;;;;;;8.65;2.63;;;;;;;;;;4895727;29;20056;-88
2022/05/21 12:45:05;;;;;;;6.82;2.42;;;;;;;19.23;58.73;68907.03;4882937;29;20045;-87
2022/05/21 12:47:45;;;;;;;8.93;2.80;;;;;;;19.01;58.52;68881.91;4902779;29;20545;-87
2022/05/21 12:50:18;;;;;;;10.15;2.70;;;;;;;18.59;59.18;68835.63;4873240;29;20131;-87
2022/05/21 12:52:53;;;;;;;9.60;2.95;;;;;;;18.39;59.56;68812.81;4874949;29;20263;-87
2022/05/21 12:55:33;;;;;;;7.25;3.45;;;;;;;18.08;61.43;68778.53;4861852;29;20518;-87
2022/05/21 12:58:22;;;;;;;10.82;4.15;;;;;;;18.05;63.91;68775.13;4882778;29;20057;-86
2022/05/21 13:00:52;;;;;;;9.32;3.53;;;;;;;18.03;64.57;68773.41;4878373;29;20041;-87
2022/05/21 13:03:19;;;;;;;15.90;4.88;;;;;;;18.07;65.80;68771.44;4882969;29;20053;-87